createdAt,value
2023-04-13T00:01:11.546Z,32.80
2023-04-13T00:03:39.713Z,24.23
2023-04-13T00:06:10.886Z,20.83
2023-04-13T00:08:37.902Z,23.17
2023-04-13T00:11:06.212Z,27.60
2023-04-13T00:13:37.266Z,26.37
2023-04-13T00:16:05.925Z,24.37
2023-04-13T00:18:32.578Z,27.80
2023-04-13T00:21:00.230Z,24.13
2023-04-13T00:23:30.212Z,22.17
2023-04-13T00:25:56.882Z,21.53
2023-04-13T00:28:24.441Z,23.20
2023-04-13T00:30:51.767Z,26.67
2023-04-13T00:33:18.491Z,23.47
2023-04-13T00:35:45.531Z,23.23
2023-04-13T00:38:12.289Z,24.40
2023-04-13T00:40:39.480Z,23.70
2023-04-13T00:43:06.167Z,21.37
2023-04-13T00:45:34.779Z,22.33
2023-04-13T00:48:01.497Z,23.37
2023-04-13T00:50:28.171Z,22.00
2023-04-13T00:52:54.836Z,25.73
2023-04-13T00:55:22.310Z,24.83
2023-04-13T00:57:52.707Z,24.43
2023-04-13T01:00:21.686Z,25.20
2023-04-13T01:02:48.443Z,25.97
2023-04-13T01:05:16.960Z,24.63
2023-04-13T01:07:53.029Z,21.37
2023-04-13T01:10:27.673Z,22.97
2023-04-13T01:12:56.946Z,30.70
2023-04-13T01:15:24.075Z,26.87
2023-04-13T01:17:58.276Z,27.50
2023-04-13T01:20:25.809Z,20.70
2023-04-13T01:22:56.720Z,23.00
2023-04-13T01:25:31.023Z,26.73
2023-04-13T01:28:05.453Z,23.73
2023-04-13T01:30:34.258Z,22.53
2023-04-13T01:33:02.311Z,21.63
2023-04-13T01:35:30.983Z,22.90
2023-04-13T01:37:59.008Z,21.30
2023-04-13T01:40:27.836Z,22.00
2023-04-13T02:18:48.422Z,19.50
2023-04-13T02:21:16.445Z,19.60
2023-04-13T02:23:43.033Z,24.47
2023-04-13T02:26:10.096Z,21.87
2023-04-13T02:28:36.688Z,22.30
2023-04-13T02:31:04.218Z,22.53
2023-04-13T02:33:31.875Z,19.90
2023-04-13T02:36:00.175Z,21.47
2023-04-13T02:38:28.535Z,26.43
2023-04-13T02:41:01.989Z,25.60
2023-04-13T02:43:29.996Z,24.83
2023-04-13T02:45:57.056Z,23.63
2023-04-13T02:48:28.469Z,22.90
2023-04-13T02:50:56.555Z,21.73
2023-04-13T02:53:28.289Z,23.37
2023-04-13T02:56:00.416Z,21.83
2023-04-13T02:58:27.051Z,22.23
2023-04-13T03:00:59.460Z,23.40
2023-04-13T03:03:30.499Z,25.10
2023-04-13T03:05:57.842Z,25.77
2023-04-13T03:08:37.032Z,27.17
2023-04-13T03:11:26.400Z,23.33
2023-04-13T03:14:21.881Z,24.63
2023-04-13T03:16:54.656Z,24.97
2023-04-13T03:19:25.702Z,26.60
2023-04-13T03:21:52.565Z,22.50
2023-04-13T03:24:23.865Z,25.10
2023-04-13T03:26:50.549Z,24.17
2023-04-13T03:29:26.245Z,24.00
2023-04-13T03:31:52.980Z,25.97
2023-04-13T03:34:19.803Z,27.13
2023-04-13T03:36:48.504Z,26.00
2023-04-13T03:39:18.433Z,27.03
2023-04-13T03:41:45.140Z,26.40
2023-04-13T03:44:12.302Z,30.73
2023-04-13T03:46:39.954Z,28.53
2023-04-13T03:49:18.916Z,27.97
2023-04-13T03:51:45.676Z,31.03
2023-04-13T03:54:14.092Z,28.93
2023-04-13T03:56:40.692Z,27.03
2023-04-13T03:59:08.792Z,27.67
2023-04-13T04:01:37.723Z,24.60
2023-04-13T04:04:05.366Z,27.47
2023-04-13T04:06:32.695Z,26.20
2023-04-13T04:09:10.286Z,27.20
2023-04-13T04:11:45.599Z,29.87
2023-04-13T04:14:14.602Z,30.80
2023-04-13T04:16:50.703Z,27.03
2023-04-13T04:19:18.596Z,25.47
2023-04-13T04:21:47.187Z,28.57
2023-04-13T04:24:23.641Z,27.43
2023-04-13T04:26:56.158Z,23.30
2023-04-13T04:29:34.700Z,25.87
2023-04-13T04:32:24.189Z,24.10
2023-04-13T04:34:53.083Z,23.83
2023-04-13T04:37:26.172Z,25.77
2023-04-13T04:40:16.215Z,24.17
2023-04-13T04:42:43.405Z,23.00
2023-04-13T04:45:28.427Z,23.83
2023-04-13T04:47:58.213Z,24.17
2023-04-13T04:50:26.489Z,25.87
2023-04-13T04:53:01.044Z,24.17
2023-04-13T04:55:28.444Z,22.00
2023-04-13T04:57:56.345Z,24.07
2023-04-13T05:01:01.809Z,19.43
2023-04-13T05:03:30.186Z,26.70
2023-04-13T05:06:08.201Z,21.73
2023-04-13T05:08:34.925Z,27.63
2023-04-13T05:11:01.564Z,27.50
2023-04-13T05:13:28.334Z,31.90
2023-04-13T05:16:32.879Z,31.87
2023-04-13T05:19:09.490Z,28.43
2023-04-13T05:22:02.464Z,25.03
2023-04-13T05:24:36.229Z,26.60
2023-04-13T05:27:09.861Z,24.83
2023-04-13T05:29:38.163Z,23.17
2023-04-13T05:32:05.312Z,22.97
2023-04-13T05:34:33.860Z,23.77
2023-04-13T05:37:20.748Z,25.17
2023-04-13T05:39:48.269Z,20.63
2023-04-13T05:42:18.345Z,21.33
2023-04-13T05:44:45.887Z,23.60
2023-04-13T05:47:14.162Z,24.13
2023-04-13T05:49:43.711Z,22.40
2023-04-13T05:52:12.082Z,23.57
2023-04-13T05:54:43.970Z,22.00
2023-04-13T05:57:10.569Z,24.60
2023-04-13T05:59:41.958Z,22.73
2023-04-13T06:02:09.329Z,22.00
2023-04-13T06:04:36.371Z,20.93
2023-04-13T06:07:03.138Z,22.50
2023-04-13T06:09:29.758Z,23.73
2023-04-13T06:11:57.285Z,22.70
2023-04-13T06:14:25.259Z,26.37
2023-04-13T06:16:52.427Z,24.03
2023-04-13T06:19:20.265Z,22.43
2023-04-13T06:21:46.901Z,27.07
2023-04-13T06:24:14.103Z,22.43
2023-04-13T06:26:40.901Z,25.87
2023-04-13T06:29:07.766Z,22.73
2023-04-13T06:31:43.575Z,24.07
2023-04-13T06:34:16.365Z,23.80
2023-04-13T06:36:43.351Z,28.07
2023-04-13T06:39:14.161Z,25.87
2023-04-13T06:41:45.510Z,25.40
2023-04-13T06:44:41.705Z,23.70
2023-04-13T06:47:09.129Z,20.43
2023-04-13T06:49:36.779Z,22.57
2023-04-13T06:52:04.759Z,21.47
2023-04-13T06:54:31.437Z,17.73
2023-04-13T06:57:05.264Z,19.13
2023-04-13T06:59:32.205Z,17.40
2023-04-13T07:01:58.841Z,18.90
2023-04-13T07:04:28.996Z,19.47
2023-04-13T07:06:57.855Z,19.23
2023-04-13T07:09:24.545Z,18.53
2023-04-13T07:11:51.236Z,16.17
2023-04-13T07:14:17.962Z,16.20
2023-04-13T07:16:45.135Z,17.30
2023-04-13T07:19:13.679Z,14.20
2023-04-13T07:21:41.521Z,18.60
2023-04-13T07:24:09.060Z,15.40
2023-04-13T07:26:39.773Z,14.23
2023-04-13T07:29:13.811Z,12.43
2023-04-13T07:31:46.537Z,11.53
2023-04-13T07:34:14.012Z,12.20
2023-04-13T07:36:44.905Z,13.00
2023-04-13T07:39:16.909Z,11.40
2023-04-13T07:41:48.095Z,12.47
2023-04-13T07:44:20.455Z,11.23
2023-04-13T07:46:47.881Z,12.23
2023-04-13T07:49:23.408Z,10.40
2023-04-13T07:51:52.348Z,10.97
2023-04-13T07:54:19.617Z,11.57
2023-04-13T07:56:48.018Z,12.17
2023-04-13T07:59:15.706Z,12.30
2023-04-13T08:01:45.496Z,11.23
2023-04-13T08:04:12.753Z,10.33
2023-04-13T08:06:41.655Z,11.83
2023-04-13T08:09:08.318Z,18.20
2023-04-13T08:11:35.101Z,13.07
2023-04-13T08:14:09.587Z,14.40
2023-04-13T08:16:38.017Z,13.97
2023-04-13T08:19:08.966Z,11.97
2023-04-13T08:21:41.215Z,12.13
2023-04-13T08:24:07.972Z,12.40
2023-04-13T08:26:34.581Z,12.60
2023-04-13T08:29:02.613Z,12.47
2023-04-13T08:31:29.316Z,12.03
2023-04-13T08:34:01.074Z,14.03
2023-04-13T08:36:28.035Z,12.90
2023-04-13T08:39:03.141Z,12.40
2023-04-13T08:41:30.531Z,12.67
2023-04-13T08:43:57.748Z,13.90
2023-04-13T08:46:27.521Z,12.83
2023-04-13T08:48:57.211Z,15.30
2023-04-13T08:51:33.416Z,14.20
2023-04-13T08:54:00.560Z,11.17
2023-04-13T08:56:42.675Z,12.10
2023-04-13T08:59:14.379Z,12.70
2023-04-13T09:01:42.190Z,12.37
2023-04-13T09:04:10.529Z,14.20
2023-04-13T09:06:43.729Z,13.23
2023-04-13T09:09:14.768Z,13.10
2023-04-13T09:11:42.860Z,12.13
2023-04-13T09:14:15.231Z,15.40
2023-04-13T09:16:42.486Z,12.17
2023-04-13T09:19:32.044Z,12.67
2023-04-13T09:21:58.826Z,13.20
2023-04-13T09:24:25.597Z,15.30
2023-04-13T09:26:53.106Z,15.10
2023-04-13T09:29:20.380Z,12.63
2023-04-13T09:31:49.283Z,12.73
2023-04-13T09:34:26.322Z,13.00
2023-04-13T09:36:56.279Z,14.73
2023-04-13T09:39:26.249Z,11.77
2023-04-13T09:41:53.663Z,12.03
2023-04-13T09:44:20.962Z,12.43
2023-04-13T09:47:00.426Z,11.93
2023-04-13T09:49:29.525Z,12.90
2023-04-13T09:51:56.270Z,11.73
2023-04-13T09:54:23.051Z,14.33
2023-04-13T09:56:57.198Z,13.40
2023-04-13T09:59:23.929Z,12.33
2023-04-13T10:01:51.333Z,10.80
2023-04-13T10:04:18.280Z,11.23
2023-04-13T10:06:45.776Z,9.40
2023-04-13T10:09:13.342Z,10.70
2023-04-13T10:11:46.791Z,9.57
2023-04-13T10:14:17.617Z,10.17
2023-04-13T10:17:05.746Z,9.90
2023-04-13T10:19:37.316Z,8.67
2023-04-13T10:22:03.972Z,10.83
2023-04-13T10:24:30.616Z,8.13
2023-04-13T10:27:00.359Z,11.10
2023-04-13T10:29:30.433Z,10.60
2023-04-13T10:32:02.623Z,9.03
2023-04-13T10:34:31.549Z,9.50
2023-04-13T10:37:06.395Z,9.50
2023-04-13T10:39:34.510Z,9.50
2023-04-13T10:42:01.825Z,9.57
2023-04-13T10:44:29.088Z,8.30
2023-04-13T10:46:55.822Z,9.37
2023-04-13T10:49:30.699Z,7.73
2023-04-13T10:51:57.396Z,7.93
2023-04-13T10:54:24.092Z,7.87
2023-04-13T10:56:57.733Z,6.30
2023-04-13T10:59:24.332Z,8.13
2023-04-13T11:01:51.009Z,8.90
2023-04-13T11:04:21.530Z,8.80
2023-04-13T11:06:48.416Z,8.90
2023-04-13T11:09:17.216Z,7.63
2023-04-13T11:11:44.014Z,7.23
2023-04-13T11:14:20.551Z,7.43
2023-04-13T11:16:47.466Z,7.73
2023-04-13T11:19:14.133Z,7.90
2023-04-13T11:21:40.923Z,7.27
2023-04-13T11:24:07.807Z,7.73
2023-04-13T11:26:35.014Z,8.53
2023-04-13T11:29:02.478Z,8.67
2023-04-13T11:31:37.752Z,6.37
2023-04-13T11:34:05.920Z,9.67
2023-04-13T11:36:32.902Z,7.73
2023-04-13T11:39:03.137Z,6.37
2023-04-13T11:41:32.447Z,8.67
2023-04-13T11:44:02.709Z,7.13
2023-04-13T11:46:29.554Z,7.03
2023-04-13T11:48:56.434Z,9.20
2023-04-13T11:51:23.158Z,6.43
2023-04-13T11:53:51.424Z,7.23
2023-04-13T11:56:18.395Z,8.83
2023-04-13T11:58:45.247Z,6.87
2023-04-13T12:01:15.371Z,8.07
2023-04-13T12:04:01.482Z,7.73
2023-04-13T12:06:34.337Z,7.37
2023-04-13T12:09:09.320Z,10.23
2023-04-13T12:11:44.684Z,7.67
2023-04-13T12:14:47.631Z,16.80
2023-04-13T12:17:34.880Z,19.10
2023-04-13T12:19:57.917Z,19.53
2023-04-13T12:22:24.864Z,17.83
2023-04-13T12:24:52.829Z,15.97
2023-04-13T12:27:20.131Z,34.40
2023-04-13T12:29:48.892Z,17.87
2023-04-13T12:32:15.609Z,19.30
2023-04-13T12:34:43.821Z,19.00
2023-04-13T12:37:11.400Z,18.70
2023-04-13T12:39:38.264Z,20.83
2023-04-13T12:42:05.325Z,17.90
2023-04-13T12:44:34.150Z,18.40
2023-04-13T12:47:01.524Z,16.97
2023-04-13T12:49:28.367Z,17.60
2023-04-13T12:51:55.029Z,19.60
2023-04-13T12:54:21.695Z,25.53
2023-04-13T12:56:48.319Z,18.47
2023-04-13T12:59:15.022Z,20.10
2023-04-13T13:01:41.615Z,20.23
2023-04-13T13:04:08.544Z,16.93
2023-04-13T13:06:35.320Z,16.33
2023-04-13T13:09:02.393Z,18.27
2023-04-13T13:11:29.243Z,17.27
2023-04-13T13:13:56.112Z,17.33
2023-04-13T13:16:22.837Z,23.23
2023-04-13T13:19:02.788Z,18.40
2023-04-13T13:21:29.687Z,19.67
2023-04-13T13:23:56.509Z,17.63
2023-04-13T13:26:25.241Z,16.90
2023-04-13T13:28:55.654Z,15.07
2023-04-13T13:31:22.358Z,19.27
2023-04-13T13:33:49.080Z,16.50
2023-04-13T13:36:16.354Z,17.07
2023-04-13T13:38:56.583Z,19.67
2023-04-13T13:41:25.591Z,16.83
2023-04-13T13:43:52.325Z,18.47
2023-04-13T13:46:19.815Z,17.90
2023-04-13T13:48:47.330Z,18.80
2023-04-13T13:51:32.760Z,16.83
2023-04-13T13:54:01.100Z,17.60
2023-04-13T13:56:27.722Z,21.30
2023-04-13T13:58:54.815Z,18.33
2023-04-13T14:01:21.664Z,15.60
2023-04-13T14:03:48.483Z,15.30
2023-04-13T14:06:15.777Z,21.30
2023-04-13T14:08:42.561Z,16.20
2023-04-13T14:11:10.470Z,16.40
2023-04-13T14:13:37.492Z,15.93
2023-04-13T14:16:04.585Z,18.10
2023-04-13T14:18:31.517Z,15.70
2023-04-13T14:20:58.293Z,16.20
2023-04-13T14:23:25.836Z,18.50
2023-04-13T14:25:52.686Z,22.10
2023-04-13T14:28:19.430Z,31.33
2023-04-13T14:30:46.209Z,28.83
2023-04-13T14:33:16.787Z,21.13
2023-04-13T14:35:43.711Z,32.03
2023-04-13T14:38:11.506Z,23.90
2023-04-13T14:40:38.296Z,20.93
2023-04-13T14:43:04.963Z,20.10
2023-04-13T14:45:32.411Z,24.47
2023-04-13T14:47:59.545Z,15.53
2023-04-13T14:50:26.677Z,18.70
2023-04-13T14:52:53.484Z,19.00
2023-04-13T14:55:20.433Z,16.63
2023-04-13T14:57:47.400Z,15.93
2023-04-13T15:00:38.876Z,16.43
2023-04-13T15:03:08.026Z,16.63
2023-04-13T15:05:41.609Z,13.17
2023-04-13T15:08:09.252Z,17.50
2023-04-13T15:10:36.066Z,17.70
2023-04-13T15:13:03.430Z,12.90
2023-04-13T15:15:31.036Z,14.60
2023-04-13T15:17:59.664Z,13.00
2023-04-13T15:20:30.896Z,13.73
2023-04-13T15:22:57.935Z,13.23
2023-04-13T15:25:25.591Z,19.77
2023-04-13T15:27:52.724Z,15.70
2023-04-13T15:30:28.989Z,22.47
2023-04-13T15:32:57.171Z,14.57
2023-04-13T15:35:30.225Z,15.17
2023-04-13T15:37:59.123Z,12.80
2023-04-13T15:40:26.058Z,15.20
2023-04-13T15:42:53.539Z,13.60
2023-04-13T15:45:21.150Z,15.43
2023-04-13T15:47:48.659Z,16.17
2023-04-13T15:50:15.484Z,12.33
2023-04-13T15:52:42.623Z,12.37
2023-04-13T15:55:10.094Z,11.90
2023-04-13T15:57:37.240Z,11.90
2023-04-13T16:00:05.045Z,11.80
2023-04-13T16:02:32.465Z,11.50
2023-04-13T16:04:59.280Z,10.17
2023-04-13T16:07:27.415Z,10.43
2023-04-13T16:09:58.221Z,11.27
2023-04-13T16:12:31.735Z,10.90
2023-04-13T16:14:59.608Z,8.10
2023-04-13T16:17:32.474Z,9.03
2023-04-13T16:20:05.425Z,9.73
2023-04-13T16:22:35.056Z,8.27
2023-04-13T16:25:05.500Z,7.80
2023-04-13T16:27:32.599Z,8.57
2023-04-13T16:29:59.949Z,9.10
2023-04-13T16:32:27.302Z,9.50
2023-04-13T16:34:54.053Z,9.90
2023-04-13T16:37:21.021Z,8.37
2023-04-13T16:39:48.700Z,8.37
2023-04-13T16:42:17.501Z,9.50
2023-04-13T16:44:44.447Z,11.00
2023-04-13T16:47:11.601Z,9.67
2023-04-13T16:49:38.300Z,9.47
2023-04-13T16:52:04.995Z,11.50
2023-04-13T16:54:31.788Z,13.50
2023-04-13T16:56:58.422Z,15.07
2023-04-13T16:59:25.148Z,18.03
2023-04-13T17:01:51.865Z,34.37
2023-04-13T17:04:18.648Z,9.23
2023-04-13T17:06:47.482Z,9.17
2023-04-13T17:09:14.094Z,9.30
2023-04-13T17:11:40.643Z,7.50
2023-04-13T17:14:07.334Z,8.57
2023-04-13T17:16:34.025Z,8.67
2023-04-13T17:19:00.950Z,8.87
2023-04-13T17:21:27.759Z,10.93
2023-04-13T17:23:55.958Z,14.97
2023-04-13T17:26:24.142Z,10.93
2023-04-13T17:28:51.409Z,11.40
2023-04-13T17:31:18.093Z,10.63
2023-04-13T17:33:45.291Z,11.80
2023-04-13T17:36:12.009Z,12.40
2023-04-13T17:38:39.446Z,12.43
2023-04-13T17:41:06.848Z,10.83
2023-04-13T17:43:34.465Z,8.80
2023-04-13T17:46:01.252Z,11.93
2023-04-13T17:48:29.601Z,11.97
2023-04-13T17:50:56.461Z,13.07
2023-04-13T17:53:24.098Z,14.37
2023-04-13T17:55:50.975Z,15.80
2023-04-13T17:58:17.971Z,16.50
2023-04-13T18:00:44.709Z,14.20
2023-04-13T18:03:11.868Z,12.83
2023-04-13T18:05:42.674Z,9.87
2023-04-13T18:08:09.341Z,9.40
2023-04-13T18:10:36.201Z,14.57
2023-04-13T18:13:04.312Z,17.30
2023-04-13T18:15:31.638Z,13.70
2023-04-13T18:17:58.643Z,9.80
2023-04-13T18:20:26.478Z,12.27
2023-04-13T18:22:53.246Z,8.57
2023-04-13T18:25:20.864Z,8.60
2023-04-13T18:27:48.766Z,10.27
2023-04-13T18:30:40.563Z,9.87
2023-04-13T18:33:07.806Z,11.30
2023-04-13T18:35:35.353Z,12.30
2023-04-13T18:38:03.061Z,11.07
2023-04-13T18:40:29.672Z,12.43
2023-04-13T18:43:01.319Z,10.67
2023-04-13T18:45:29.145Z,12.60
2023-04-13T18:48:01.352Z,8.63
2023-04-13T18:50:29.301Z,15.23
2023-04-13T18:52:56.267Z,17.00
2023-04-13T18:55:25.923Z,19.70
2023-04-13T18:57:52.648Z,14.97
2023-04-13T19:00:19.467Z,14.80
2023-04-13T19:02:47.741Z,21.33
2023-04-13T19:05:15.878Z,28.00
2023-04-13T19:08:03.623Z,41.40
2023-04-13T19:10:31.655Z,32.27
2023-04-13T19:12:58.279Z,19.63
2023-04-13T19:15:25.209Z,12.80
2023-04-13T19:17:52.314Z,14.40
2023-04-13T19:20:22.281Z,15.43
2023-04-13T19:22:49.021Z,14.93
2023-04-13T19:25:15.846Z,12.00
2023-04-13T19:27:44.877Z,17.70
2023-04-13T19:30:12.332Z,14.30
2023-04-13T19:32:39.864Z,13.87
2023-04-13T19:35:06.909Z,11.27
2023-04-13T19:37:35.561Z,13.20
2023-04-13T19:40:02.318Z,12.03
2023-04-13T19:42:29.118Z,14.23
2023-04-13T19:44:55.826Z,14.43
2023-04-13T19:47:22.574Z,15.33
2023-04-13T19:49:49.254Z,12.90
2023-04-13T19:52:16.534Z,14.43
2023-04-13T19:54:46.177Z,16.17
2023-04-13T19:57:13.102Z,16.13
2023-04-13T19:59:44.224Z,13.53
2023-04-13T20:02:11.385Z,14.73
2023-04-13T20:04:38.238Z,14.10
2023-04-13T20:07:06.860Z,15.23
2023-04-13T20:09:33.472Z,14.90
2023-04-13T20:12:00.177Z,15.23
2023-04-13T20:14:27.418Z,17.10
2023-04-13T20:16:54.874Z,15.27
2023-04-13T20:19:25.146Z,15.27
2023-04-13T20:21:52.939Z,17.03
2023-04-13T20:24:19.565Z,25.80
2023-04-13T20:26:47.101Z,23.73
2023-04-13T20:29:17.023Z,35.60
2023-04-13T20:31:44.591Z,27.00
2023-04-13T20:34:15.831Z,28.37
2023-04-13T20:36:43.018Z,23.27
2023-04-13T20:39:09.877Z,27.33
2023-04-13T20:41:36.812Z,25.83
2023-04-13T20:44:05.307Z,23.13
2023-04-13T20:46:35.119Z,25.50
2023-04-13T20:49:04.360Z,26.53
2023-04-13T20:51:31.393Z,24.87
2023-04-13T20:53:58.841Z,24.13
2023-04-13T20:56:25.646Z,29.57
2023-04-13T20:58:57.957Z,35.43
2023-04-13T21:01:28.138Z,29.57
2023-04-13T21:03:54.767Z,37.57
2023-04-13T21:06:22.954Z,36.43
2023-04-13T21:08:49.764Z,33.07
2023-04-13T21:11:16.370Z,35.33
2023-04-13T21:13:43.084Z,40.17
2023-04-13T21:16:11.259Z,38.53
2023-04-13T21:18:37.989Z,35.50
2023-04-13T21:21:07.921Z,39.67
2023-04-13T21:23:37.490Z,36.53
2023-04-13T21:26:05.415Z,30.70
2023-04-13T21:28:32.022Z,30.30
2023-04-13T21:30:59.776Z,32.50
2023-04-13T21:33:26.431Z,31.93
2023-04-13T21:35:53.164Z,28.70
2023-04-13T21:38:19.794Z,30.47
2023-04-13T21:40:46.394Z,31.23
2023-04-13T21:43:13.000Z,30.13
2023-04-13T21:45:42.238Z,32.13
2023-04-13T21:48:08.861Z,33.43
2023-04-13T21:50:35.510Z,26.43
2023-04-13T21:53:02.163Z,24.10
2023-04-13T21:55:28.811Z,31.80
2023-04-13T21:57:55.604Z,30.43
2023-04-13T22:00:22.551Z,28.50
2023-04-13T22:02:49.716Z,34.17
2023-04-13T22:05:17.014Z,33.03
2023-04-13T22:07:44.502Z,32.93
2023-04-13T22:10:12.784Z,32.13
2023-04-13T22:12:39.369Z,35.50
2023-04-13T22:15:06.381Z,32.90
2023-04-13T22:17:32.969Z,35.90
2023-04-13T22:19:59.560Z,36.70
2023-04-13T22:22:27.928Z,36.33
2023-04-13T22:24:54.517Z,37.80
2023-04-13T22:27:21.290Z,35.90
2023-04-13T22:29:48.804Z,35.40
2023-04-13T22:32:16.677Z,35.03
2023-04-13T22:34:43.424Z,33.67
2023-04-13T22:37:10.866Z,33.57
2023-04-13T22:39:37.476Z,34.43
2023-04-13T22:42:04.731Z,34.87
2023-04-13T22:44:35.661Z,34.93
2023-04-13T22:47:03.039Z,34.40
2023-04-13T22:49:29.991Z,34.83
2023-04-13T22:51:57.780Z,34.30
2023-04-13T22:54:24.388Z,35.90
2023-04-13T22:56:51.413Z,36.13
2023-04-13T22:59:18.253Z,36.47
2023-04-13T23:01:45.024Z,31.40
2023-04-13T23:04:14.205Z,33.90
2023-04-13T23:06:42.443Z,35.43
2023-04-13T23:09:09.181Z,33.57
2023-04-13T23:11:35.815Z,32.23
2023-04-13T23:14:02.566Z,34.07
2023-04-13T23:16:29.329Z,33.00
2023-04-13T23:18:56.594Z,33.73
2023-04-13T23:21:23.767Z,34.97
2023-04-13T23:23:50.466Z,29.80
2023-04-13T23:26:17.192Z,34.03
2023-04-13T23:28:43.986Z,30.80
2023-04-13T23:31:10.998Z,32.93
2023-04-13T23:33:37.900Z,32.93
2023-04-13T23:36:04.739Z,29.13
2023-04-13T23:38:31.603Z,29.77
2023-04-13T23:40:58.461Z,29.90
2023-04-13T23:43:25.151Z,31.37
2023-04-13T23:45:52.324Z,31.03
2023-04-13T23:48:19.238Z,29.93
2023-04-13T23:50:48.254Z,29.07
2023-04-13T23:53:14.835Z,29.87
2023-04-13T23:55:41.731Z,30.43
2023-04-13T23:58:09.166Z,28.20
